Time;durP1;ratioP1;P1;durP2;ratioP2;P2;SDS_P1;SDS_P2;PMS_P1;PMS_P2;Temp;Humidity;BMP_temperature;BMP_pressure;BME280_temperature;BME280_humidity;BME280_pressure;Samples;Min_cycle;Max_cycle;Signal;HPM_P1;HPM_P2
2021/09/08 00:01:53;;;;;;;28.67;15.73;;;;;;;14.66;61.42;99257.16;4916041;29;20027;-69
2021/09/08 00:04:19;;;;;;;26.20;15.32;;;;;;;14.66;61.49;99262.66;4924061;29;20556;-68
2021/09/08 00:06:46;;;;;;;35.67;19.42;;;;;;;14.63;61.48;99258.59;4924955;29;20027;-68
2021/09/08 00:09:11;;;;;;;28.13;14.63;;;;;;;14.61;61.72;99260.84;4923780;29;20028;-69
2021/09/08 00:11:37;;;;;;;31.52;17.48;;;;;;;14.58;61.72;99253.97;4924225;29;20056;-69
2021/09/08 00:14:02;;;;;;;29.67;16.38;;;;;;;14.57;61.75;99263.38;4924050;29;20114;-69
2021/09/08 00:16:28;;;;;;;30.33;18.58;;;;;;;14.57;61.98;99262.56;4923909;29;20038;-69
2021/09/08 00:18:53;;;;;;;28.45;16.58;;;;;;;14.56;62.07;99260.91;4923629;29;20138;-69
2021/09/08 00:21:19;;;;;;;31.92;17.48;;;;;;;14.51;62.42;99267.31;4924086;29;20053;-69
2021/09/08 00:23:44;;;;;;;34.25;16.98;;;;;;;14.44;62.20;99264.16;4924811;29;20028;-69
2021/09/08 00:26:09;;;;;;;29.40;15.63;;;;;;;14.44;62.28;99267.72;4924352;29;20079;-68
2021/09/08 00:28:35;;;;;;;29.38;16.83;;;;;;;14.43;62.40;99270.81;4923046;29;20063;-69
2021/09/08 00:31:00;;;;;;;28.40;15.85;;;;;;;14.44;62.70;99262.22;4924311;29;20126;-69
2021/09/08 00:33:26;;;;;;;22.77;13.93;;;;;;;14.49;62.55;99263.25;4922422;29;20039;-69
2021/09/08 00:35:51;;;;;;;25.58;14.05;;;;;;;14.49;62.66;99272.34;4922855;29;20082;-69
2021/09/08 00:38:17;;;;;;;20.77;12.00;;;;;;;14.54;62.50;99272.25;4922661;29;20028;-70
2021/09/08 00:40:42;;;;;;;22.55;13.07;;;;;;;14.57;62.41;99270.84;4924394;29;20135;-69
2021/09/08 00:43:09;;;;;;;22.40;13.07;;;;;;;14.54;62.67;99272.25;4923474;29;20038;-69
2021/09/08 00:45:35;;;;;;;20.48;13.27;;;;;;;14.59;62.78;99283.19;4923546;29;20115;-69
2021/09/08 00:48:02;;;;;;;25.30;13.60;;;;;;;14.60;62.54;99275.75;4922564;29;20143;-69
2021/09/08 00:50:28;;;;;;;21.08;13.07;;;;;;;14.63;62.63;99271.56;4923235;29;20086;-70
2021/09/08 00:52:58;;;;;;;21.20;13.63;;;;;;;14.69;62.63;99273.94;4922795;29;20031;-69
2021/09/08 00:55:26;;;;;;;19.90;12.60;;;;;;;14.69;62.22;99275.91;4923337;29;20497;-70
2021/09/08 00:57:53;;;;;;;24.00;13.18;;;;;;;14.62;62.56;99280.97;4921906;29;20116;-69
2021/09/08 01:00:18;;;;;;;25.88;14.02;;;;;;;14.58;62.75;99275.25;4924350;29;20087;-69
2021/09/08 01:02:45;;;;;;;24.85;13.65;;;;;;;14.53;62.46;99272.56;4926914;29;20027;-69
2021/09/08 01:05:11;;;;;;;28.60;14.63;;;;;;;14.48;62.94;99265.16;4926588;29;20039;-69
2021/09/08 01:07:37;;;;;;;27.75;14.95;;;;;;;14.47;63.01;99271.00;4926265;29;20123;-69
2021/09/08 01:10:04;;;;;;;25.90;14.20;;;;;;;14.47;62.73;99271.81;4926798;29;20914;-69
2021/09/08 01:12:29;;;;;;;23.60;14.63;;;;;;;14.48;63.02;99262.41;4926423;29;20142;-69
2021/09/08 01:14:55;;;;;;;25.35;14.70;;;;;;;14.52;63.00;99266.22;4926741;29;20110;-69
2021/09/08 01:17:21;;;;;;;26.77;14.85;;;;;;;14.51;62.84;99261.00;4925654;29;20027;-69
2021/09/08 01:19:46;;;;;;;27.00;14.85;;;;;;;14.52;62.64;99268.97;4926022;29;20027;-70
2021/09/08 01:22:12;;;;;;;25.35;15.00;;;;;;;14.54;62.74;99276.97;4926404;29;20066;-70
2021/09/08 01:24:40;;;;;;;34.60;17.90;;;;;;;14.58;62.92;99269.72;4926500;29;20035;-70
2021/09/08 01:27:05;;;;;;;26.77;13.95;;;;;;;14.59;62.84;99268.59;4926105;29;20648;-69
2021/09/08 01:29:31;;;;;;;24.88;15.07;;;;;;;14.54;62.75;99266.72;4925171;29;20139;-68
2021/09/08 01:31:58;;;;;;;35.35;17.55;;;;;;;14.57;62.32;99268.06;4940348;29;20487;-69
2021/09/08 01:34:25;;;;;;;33.40;16.83;;;;;;;14.64;63.04;99264.91;4925977;29;20035;-68
2021/09/08 01:36:52;;;;;;;28.35;16.67;;;;;;;14.72;62.91;99272.53;4926298;29;20512;-69
2021/09/08 01:39:19;;;;;;;38.28;18.98;;;;;;;14.78;62.81;99264.97;4925604;29;20055;-69
2021/09/08 01:41:45;;;;;;;29.63;16.48;;;;;;;14.82;62.73;99272.34;4926660;29;20039;-69
2021/09/08 01:44:11;;;;;;;31.23;16.80;;;;;;;14.85;62.90;99268.16;4926689;29;20615;-69
2021/09/08 01:46:36;;;;;;;35.55;17.70;;;;;;;14.85;62.88;99266.22;4925859;29;20028;-69
2021/09/08 01:49:02;;;;;;;32.92;17.40;;;;;;;14.86;62.38;99261.50;4925320;29;20095;-69
2021/09/08 01:51:27;;;;;;;39.60;18.65;;;;;;;14.87;62.56;99268.66;4925594;29;20034;-70
2021/09/08 01:53:53;;;;;;;38.78;18.58;;;;;;;14.85;62.28;99260.69;4925782;29;20035;-69
2021/09/08 01:56:18;;;;;;;29.27;15.70;;;;;;;14.86;62.26;99259.56;4926390;29;20468;-69
2021/09/08 01:58:44;;;;;;;31.85;17.33;;;;;;;14.86;62.23;99259.56;4925525;29;20032;-69
2021/09/08 02:01:10;;;;;;;30.95;16.58;;;;;;;14.81;62.03;99267.13;4925843;29;20032;-69
2021/09/08 02:03:35;;;;;;;29.85;15.85;;;;;;;14.74;62.08;99267.53;4925630;29;20079;-69
2021/09/08 02:06:16;;;;;;;27.75;15.60;;;;;;;14.69;62.15;99262.09;4925763;29;20038;-69
2021/09/08 02:08:42;;;;;;;29.42;14.77;;;;;;;14.67;62.19;99264.31;4925040;29;20028;-68
2021/09/08 02:11:07;;;;;;;33.33;18.95;;;;;;;14.67;62.22;99261.53;4925479;29;20053;-69
2021/09/08 02:13:32;;;;;;;34.50;17.80;;;;;;;14.65;62.30;99266.56;4924199;28;20433;-69
2021/09/08 02:15:58;;;;;;;33.83;18.05;;;;;;;14.62;62.16;99261.63;4925448;29;20036;-70
2021/09/08 02:18:23;;;;;;;30.50;16.67;;;;;;;14.61;62.28;99263.59;4924300;29;20024;-69
2021/09/08 02:20:48;;;;;;;30.95;15.85;;;;;;;14.63;62.37;99257.75;4924864;29;20028;-69
2021/09/08 02:23:14;;;;;;;28.05;14.30;;;;;;;14.61;62.63;99255.31;4925403;29;20524;-69
2021/09/08 02:25:40;;;;;;;29.55;14.90;;;;;;;14.57;62.52;99263.38;4925819;29;20023;-70
2021/09/08 02:28:05;;;;;;;22.58;13.02;;;;;;;14.54;62.44;99254.88;4929156;29;20044;-70
2021/09/08 02:30:31;;;;;;;27.05;13.38;;;;;;;14.43;62.31;99257.81;4924567;29;20053;-70
2021/09/08 02:32:56;;;;;;;26.80;13.65;;;;;;;14.43;62.77;99260.56;4923506;29;20027;-71
2021/09/08 02:35:22;;;;;;;23.80;13.55;;;;;;;14.43;62.48;99265.28;4925132;29;20512;-69
2021/09/08 02:37:47;;;;;;;20.95;12.00;;;;;;;14.41;63.09;99251.78;4924860;29;20042;-69
2021/09/08 02:40:13;;;;;;;23.85;12.73;;;;;;;14.44;62.82;99258.66;4924825;29;20036;-69
2021/09/08 02:42:38;;;;;;;20.48;12.05;;;;;;;14.43;62.69;99255.06;4924479;29;20594;-69
2021/09/08 02:45:04;;;;;;;21.05;11.45;;;;;;;14.44;62.66;99255.88;4924219;29;20127;-68
2021/09/08 02:47:30;;;;;;;21.90;10.73;;;;;;;14.47;62.90;99260.78;4923743;29;20547;-69
2021/09/08 02:49:55;;;;;;;19.20;10.85;;;;;;;14.50;62.84;99259.38;4924753;29;20122;-68
2021/09/08 02:52:20;;;;;;;17.92;9.88;;;;;;;14.50;62.67;99251.88;4924149;29;20487;-69
2021/09/08 02:54:46;;;;;;;16.88;10.25;;;;;;;14.52;62.79;99262.63;4924611;29;20111;-69
2021/09/08 02:57:11;;;;;;;18.67;10.98;;;;;;;14.47;62.55;99263.53;4925499;29;20035;-68
2021/09/08 02:59:36;;;;;;;19.38;10.77;;;;;;;14.48;62.38;99267.13;4924765;29;20027;-69
2021/09/08 03:02:02;;;;;;;17.80;10.25;;;;;;;14.47;62.81;99257.22;4925052;29;20036;-69
2021/09/08 03:04:27;;;;;;;18.25;11.32;;;;;;;14.46;62.52;99255.56;4924909;29;20038;-68
2021/09/08 03:06:54;;;;;;;20.88;10.85;;;;;;;14.45;62.67;99260.28;4939876;29;20028;-68
2021/09/08 03:09:19;;;;;;;20.40;11.35;;;;;;;14.43;62.52;99262.53;4925150;29;20031;-69
2021/09/08 03:11:45;;;;;;;19.90;11.57;;;;;;;14.34;62.65;99273.41;4925378;29;20027;-69
2021/09/08 03:14:10;;;;;;;16.40;10.60;;;;;;;14.28;62.12;99261.66;4925166;29;20517;-68
2021/09/08 03:16:36;;;;;;;18.13;10.93;;;;;;;14.25;62.85;99267.78;4925340;29;20036;-69
2021/09/08 03:19:01;;;;;;;16.98;10.82;;;;;;;14.25;62.88;99255.94;4938403;29;20122;-68
2021/09/08 03:21:26;;;;;;;17.52;10.02;;;;;;;14.24;62.74;99263.38;4925047;29;20037;-68
2021/09/08 03:23:52;;;;;;;19.27;10.90;;;;;;;14.25;62.73;99267.78;4924767;29;20039;-68
2021/09/08 03:26:17;;;;;;;20.70;10.65;;;;;;;14.24;62.87;99265.31;4924632;29;20035;-68
2021/09/08 03:28:43;;;;;;;17.00;10.65;;;;;;;14.23;62.71;99264.50;4924456;29;20060;-68
2021/09/08 03:31:08;;;;;;;16.17;10.93;;;;;;;14.22;62.73;99273.09;4924685;29;20035;-68
2021/09/08 03:33:34;;;;;;;18.15;10.38;;;;;;;14.22;62.86;99265.59;4924697;29;20035;-69
2021/09/08 03:35:59;;;;;;;18.60;9.50;;;;;;;14.22;62.88;99267.56;4924096;29;20027;-69
2021/09/08 03:38:24;;;;;;;17.38;10.57;;;;;;;14.16;62.77;99258.53;4921658;29;20472;-68
2021/09/08 03:40:50;;;;;;;22.70;11.73;;;;;;;14.15;62.44;99270.69;4923164;29;20055;-68
2021/09/08 03:43:15;;;;;;;19.42;11.55;;;;;;;14.11;62.64;99261.38;4923734;29;20023;-68
2021/09/08 03:45:41;;;;;;;19.42;11.10;;;;;;;14.08;62.49;99264.72;4923973;29;20032;-68
2021/09/08 03:48:06;;;;;;;16.88;10.40;;;;;;;14.04;62.69;99263.72;4922748;29;20058;-68
2021/09/08 03:50:31;;;;;;;19.17;11.05;;;;;;;14.01;62.48;99262.34;4923378;29;20038;-68
2021/09/08 03:52:58;;;;;;;18.67;10.68;;;;;;;13.99;62.83;99261.84;4923607;29;20034;-68
2021/09/08 03:55:24;;;;;;;17.75;11.27;;;;;;;13.94;62.74;99262.75;4928254;29;20123;-69
2021/09/08 03:57:49;;;;;;;16.70;11.07;;;;;;;13.91;62.65;99259.75;4923353;29;20035;-68
2021/09/08 04:00:15;;;;;;;16.27;11.25;;;;;;;13.84;62.40;99260.13;4938651;29;20492;-68
2021/09/08 04:02:40;;;;;;;19.35;11.93;;;;;;;13.78;62.37;99262.16;4923568;29;20036;-68
2021/09/08 04:05:06;;;;;;;19.27;12.02;;;;;;;13.71;62.52;99264.47;4923187;29;20028;-68
2021/09/08 04:07:31;;;;;;;16.88;11.18;;;;;;;13.64;62.51;99251.06;4922676;29;20020;-68
2021/09/08 04:09:57;;;;;;;18.02;11.63;;;;;;;13.60;62.50;99260.19;4923422;29;20016;-68
2021/09/08 04:12:22;;;;;;;18.13;11.75;;;;;;;13.59;62.76;99264.06;4923690;29;20027;-68
2021/09/08 04:14:48;;;;;;;17.17;11.85;;;;;;;13.57;62.79;99267.13;4924093;29;20024;-68
2021/09/08 04:17:13;;;;;;;19.50;13.38;;;;;;;13.54;62.70;99254.75;4938094;29;20501;-69
2021/09/08 04:19:39;;;;;;;21.30;12.23;;;;;;;13.56;62.98;99257.22;4923646;29;20061;-68
2021/09/08 04:22:05;;;;;;;22.25;12.00;;;;;;;13.54;62.44;99268.53;4923209;29;20716;-68
2021/09/08 04:24:30;;;;;;;24.20;13.48;;;;;;;13.52;63.31;99265.25;4923445;29;20023;-68
2021/09/08 04:26:56;;;;;;;22.63;13.40;;;;;;;13.54;63.08;99270.47;4923072;29;20475;-68
2021/09/08 04:29:21;;;;;;;26.23;13.75;;;;;;;13.53;63.37;99266.88;4922705;29;20174;-68
2021/09/08 04:31:47;;;;;;;22.73;13.07;;;;;;;13.55;63.18;99277.63;4923404;29;20031;-68
2021/09/08 04:34:12;;;;;;;26.02;13.00;;;;;;;13.60;63.47;99273.97;4923552;29;20055;-70
2021/09/08 04:36:38;;;;;;;24.83;14.20;;;;;;;13.62;63.62;99278.09;4926371;29;20028;-70
2021/09/08 04:39:03;;;;;;;27.00;15.60;;;;;;;13.65;63.62;99277.47;4926462;29;20083;-69
2021/09/08 04:41:29;;;;;;;28.52;15.00;;;;;;;13.67;63.71;99274.44;4928054;29;20111;-69
2021/09/08 04:43:54;;;;;;;26.55;14.35;;;;;;;13.71;63.67;99272.72;4928768;29;20387;-69
2021/09/08 04:46:20;;;;;;;28.90;16.90;;;;;;;13.63;63.68;99270.63;4928213;29;20146;-69
2021/09/08 04:48:45;;;;;;;29.45;14.27;;;;;;;13.59;63.97;99273.16;4927707;29;20604;-69
2021/09/08 04:51:12;;;;;;;22.45;14.05;;;;;;;13.60;63.92;99269.28;4927854;29;20059;-69
2021/09/08 04:53:37;;;;;;;24.08;12.57;;;;;;;13.58;63.99;99270.69;4927729;29;20044;-69
2021/09/08 04:56:03;;;;;;;25.33;14.02;;;;;;;13.58;64.46;99274.28;4927336;29;20031;-69
2021/09/08 04:58:28;;;;;;;24.25;13.52;;;;;;;13.61;64.40;99273.69;4927235;29;20051;-69
2021/09/08 05:00:53;;;;;;;24.83;13.80;;;;;;;13.65;64.52;99269.19;4928089;29;20024;-69
2021/09/08 05:03:20;;;;;;;24.42;13.68;;;;;;;13.67;64.34;99275.25;4928426;29;20115;-68
2021/09/08 05:05:46;;;;;;;24.58;13.32;;;;;;;13.73;64.76;99270.50;4926943;29;20138;-69
2021/09/08 05:08:11;;;;;;;25.30;12.70;;;;;;;13.74;64.84;99266.63;4927502;29;20373;-69
2021/09/08 05:10:37;;;;;;;23.92;13.48;;;;;;;13.81;64.92;99275.34;4927874;29;20034;-69
2021/09/08 05:13:02;;;;;;;20.67;12.77;;;;;;;13.90;65.01;99277.41;4927423;29;20046;-70
2021/09/08 05:15:28;;;;;;;25.40;13.88;;;;;;;13.93;64.68;99276.81;4958638;28;20039;-69
2021/09/08 05:17:53;;;;;;;21.38;13.52;;;;;;;13.99;65.04;99276.47;4941437;29;20034;-69
2021/09/08 05:20:19;;;;;;;19.00;12.45;;;;;;;14.05;64.80;99276.38;4928489;29;20661;-70
2021/09/08 05:22:44;;;;;;;20.95;12.70;;;;;;;14.11;64.84;99286.19;4928221;29;20587;-69
2021/09/08 05:25:10;;;;;;;25.02;14.45;;;;;;;14.16;64.91;99288.06;4927567;29;20039;-69
2021/09/08 05:27:36;;;;;;;22.17;13.88;;;;;;;14.18;64.69;99292.16;4926247;29;20083;-70
2021/09/08 05:30:02;;;;;;;22.95;14.07;;;;;;;14.18;65.17;99292.16;4927752;29;20066;-70
2021/09/08 05:32:27;;;;;;;22.85;12.85;;;;;;;14.20;64.96;99292.69;4927521;29;20028;-70
2021/09/08 05:34:55;;;;;;;21.30;13.07;;;;;;;14.20;65.03;99284.41;4928317;29;20090;-69
2021/09/08 05:37:21;;;;;;;23.92;12.77;;;;;;;14.20;65.38;99287.16;4927673;29;20034;-70
2021/09/08 05:39:46;;;;;;;25.95;14.70;;;;;;;14.21;65.20;99282.47;4927570;29;20043;-70
2021/09/08 05:42:11;;;;;;;25.05;13.20;;;;;;;14.24;65.19;99287.41;4927714;29;20045;-70
2021/09/08 05:44:37;;;;;;;25.27;13.07;;;;;;;14.27;65.48;99293.13;4927557;29;20024;-70
2021/09/08 05:47:02;;;;;;;22.45;13.10;;;;;;;14.30;65.22;99280.66;4926428;29;20031;-70
2021/09/08 05:49:28;;;;;;;21.10;12.70;;;;;;;14.37;65.05;99288.56;4926417;29;20455;-70
2021/09/08 05:51:53;;;;;;;18.40;10.90;;;;;;;14.42;64.95;99291.25;4927311;29;20034;-70
2021/09/08 05:54:19;;;;;;;21.42;12.73;;;;;;;14.47;65.46;99290.31;4928160;29;20036;-70
2021/09/08 05:56:44;;;;;;;23.42;12.73;;;;;;;14.56;65.55;99292.09;4927432;29;20036;-70
2021/09/08 05:59:09;;;;;;;19.10;12.32;;;;;;;14.62;65.37;99292.84;4926452;29;20032;-70
2021/09/08 06:01:35;;;;;;;21.77;12.60;;;;;;;14.67;65.19;99287.19;4927633;29;20055;-70
2021/09/08 06:04:00;;;;;;;23.30;12.68;;;;;;;14.73;65.30;99293.50;4927262;29;20066;-70
2021/09/08 06:06:26;;;;;;;23.38;13.32;;;;;;;14.79;65.34;99285.94;4927774;29;20059;-69
2021/09/08 06:08:51;;;;;;;21.88;12.75;;;;;;;14.83;65.06;99301.59;4925722;29;20075;-70
2021/09/08 06:11:16;;;;;;;20.92;12.13;;;;;;;14.86;65.01;99289.97;4926864;29;20122;-69
2021/09/08 06:13:42;;;;;;;23.08;12.70;;;;;;;14.87;65.28;99285.22;4927535;29;20049;-69
2021/09/08 06:16:07;;;;;;;28.80;13.98;;;;;;;14.91;65.28;99286.25;4941619;29;20118;-70
2021/09/08 06:18:33;;;;;;;21.30;13.60;;;;;;;15.00;65.53;99294.66;4926184;29;20032;-69
2021/09/08 06:20:58;;;;;;;21.55;12.77;;;;;;;15.09;65.86;99283.72;4927425;29;20023;-69
2021/09/08 06:23:24;;;;;;;21.90;12.88;;;;;;;15.20;65.55;99285.16;4927311;29;20031;-70
2021/09/08 06:25:49;;;;;;;22.35;13.00;;;;;;;15.28;65.83;99283.63;4957410;28;20031;-70
2021/09/08 06:28:14;;;;;;;20.42;12.10;;;;;;;15.35;65.85;99285.97;4926311;29;20069;-69
2021/09/08 06:30:40;;;;;;;21.50;12.90;;;;;;;15.42;65.59;99289.16;4926799;29;20044;-69
2021/09/08 06:33:06;;;;;;;18.02;11.63;;;;;;;15.51;65.29;99280.94;4940929;29;20054;-70
2021/09/08 06:35:31;;;;;;;19.63;12.27;;;;;;;15.59;65.56;99285.75;4926450;29;20127;-70
2021/09/08 06:37:56;;;;;;;19.35;12.75;;;;;;;15.69;65.87;99284.72;4925969;29;20108;-70
2021/09/08 06:40:23;;;;;;;22.42;13.20;;;;;;;15.75;65.54;99283.47;4926593;29;20096;-70
2021/09/08 06:42:49;;;;;;;19.15;11.77;;;;;;;15.82;65.34;99283.03;4925585;29;20263;-70
2021/09/08 06:45:16;;;;;;;20.23;11.82;;;;;;;15.90;65.71;99294.19;4926476;29;20757;-69
2021/09/08 06:47:42;;;;;;;18.52;11.10;;;;;;;15.97;65.23;99282.72;4924804;29;21190;-69
2021/09/08 06:50:08;;;;;;;17.60;11.40;;;;;;;16.02;65.12;99285.38;4926539;29;20552;-69
2021/09/08 06:52:34;;;;;;;18.60;10.60;;;;;;;16.11;65.52;99276.31;4926515;29;20040;-68
2021/09/08 06:54:59;;;;;;;16.27;9.25;;;;;;;16.18;65.25;99287.75;4926449;29;20031;-70
2021/09/08 06:57:24;;;;;;;18.25;10.55;;;;;;;16.22;65.36;99286.84;4925095;29;20035;-70
2021/09/08 06:59:50;;;;;;;17.33;10.45;;;;;;;16.29;65.13;99296.66;4926098;29;20537;-71
2021/09/08 07:02:15;;;;;;;19.88;11.20;;;;;;;16.34;65.26;99294.59;4925411;29;20043;-69
2021/09/08 07:04:41;;;;;;;20.63;11.15;;;;;;;16.43;65.24;99302.13;4926340;29;20084;-69
2021/09/08 07:07:06;;;;;;;17.90;10.20;;;;;;;16.53;65.04;99288.00;4925942;29;20047;-67
2021/09/08 07:09:31;;;;;;;16.33;9.65;;;;;;;16.58;64.55;99298.16;4915786;29;20388;-68
2021/09/08 07:11:57;;;;;;;16.63;9.85;;;;;;;16.62;64.77;99291.66;4925246;29;20030;-68
2021/09/08 07:14:23;;;;;;;15.30;9.52;;;;;;;16.68;64.70;99300.69;4938479;29;20031;-68
2021/09/08 07:16:49;;;;;;;14.80;8.93;;;;;;;16.75;64.31;99295.47;4923706;29;20032;-68
2021/09/08 07:19:14;;;;;;;13.70;8.65;;;;;;;16.81;64.43;99310.84;4931849;29;20147;-67
2021/09/08 07:21:40;;;;;;;13.98;8.70;;;;;;;16.90;64.50;99301.75;4933061;29;20043;-69
2021/09/08 07:24:05;;;;;;;15.18;9.13;;;;;;;16.95;64.31;99302.44;4932976;29;20038;-68
2021/09/08 07:26:34;;;;;;;15.30;9.05;;;;;;;17.02;63.92;99299.25;4931772;29;20400;-68
2021/09/08 07:29:01;;;;;;;16.65;10.05;;;;;;;17.10;64.12;99304.03;4932231;29;20043;-68
2021/09/08 07:31:27;;;;;;;17.17;8.95;;;;;;;17.16;63.83;99301.91;4931702;29;20126;-68
2021/09/08 07:33:52;;;;;;;15.57;8.93;;;;;;;17.26;63.74;99295.25;4932770;29;20038;-68
2021/09/08 07:36:18;;;;;;;13.07;9.05;;;;;;;17.37;64.03;99298.56;4932711;29;20407;-68
2021/09/08 07:38:43;;;;;;;15.75;8.93;;;;;;;17.48;63.81;99294.34;4932449;29;20031;-68
2021/09/08 07:41:09;;;;;;;13.80;8.57;;;;;;;17.56;63.90;99299.13;4932256;29;20528;-68
2021/09/08 07:43:34;;;;;;;13.60;9.20;;;;;;;17.65;63.36;99301.09;4932155;29;20362;-68
2021/09/08 07:45:59;;;;;;;14.73;8.52;;;;;;;17.69;63.34;99293.78;4932512;29;20039;-68
2021/09/08 07:48:25;;;;;;;21.45;9.27;;;;;;;17.78;63.31;99304.88;4932303;29;20111;-67
2021/09/08 07:50:50;;;;;;;15.40;9.00;;;;;;;17.85;63.27;99308.00;4932444;29;20381;-68
2021/09/08 07:53:15;;;;;;;15.00;8.50;;;;;;;17.92;63.04;99313.06;4925301;29;20063;-69
2021/09/08 07:55:41;;;;;;;13.60;8.60;;;;;;;18.01;62.92;99305.59;4931842;29;20035;-68
2021/09/08 07:58:07;;;;;;;15.00;8.35;;;;;;;18.08;62.81;99310.63;4946616;29;20036;-68
2021/09/08 08:00:35;;;;;;;23.70;11.80;;;;;;;18.18;62.71;99309.50;4931493;29;20070;-69
2021/09/08 08:03:02;;;;;;;15.52;9.65;;;;;;;18.27;62.82;99299.22;4932040;29;20035;-68
2021/09/08 08:05:29;;;;;;;14.45;8.57;;;;;;;18.35;62.56;99298.41;4931542;29;20080;-67
2021/09/08 08:07:55;;;;;;;14.25;8.15;;;;;;;18.43;62.46;99305.91;4932214;29;20024;-67
2021/09/08 08:10:20;;;;;;;13.45;8.35;;;;;;;18.56;62.50;99308.81;4962860;28;20031;-67
2021/09/08 08:12:46;;;;;;;13.25;8.70;;;;;;;18.66;62.32;99302.91;4935369;29;20032;-68
2021/09/08 08:15:13;;;;;;;14.00;8.77;;;;;;;18.77;62.05;99295.03;4936182;29;20166;-68
2021/09/08 08:17:39;;;;;;;13.07;8.23;;;;;;;18.88;61.93;99295.53;4935677;29;20083;-69
2021/09/08 08:20:08;;;;;;;14.80;8.90;;;;;;;19.00;61.84;99294.88;4935402;29;20028;-68
2021/09/08 08:22:43;;;;;;;16.23;9.10;;;;;;;19.11;61.54;99295.31;4934489;29;20039;-67
2021/09/08 08:25:11;;;;;;;11.65;7.72;;;;;;;19.21;61.55;99302.44;4943168;29;20046;-68
2021/09/08 08:27:36;;;;;;;15.50;9.00;;;;;;;19.25;61.32;99295.91;4935710;29;20048;-67
2021/09/08 08:30:04;;;;;;;12.48;7.28;;;;;;;19.36;61.08;99296.34;4935674;29;20046;-67
2021/09/08 08:32:29;;;;;;;12.30;7.40;;;;;;;19.42;60.81;99300.56;4934504;29;20126;-67
2021/09/08 08:34:54;;;;;;;12.48;7.28;;;;;;;19.49;60.51;99291.69;4935462;29;20078;-67
2021/09/08 08:37:20;;;;;;;11.48;6.70;;;;;;;19.58;60.29;99288.84;4936121;29;20034;-67
2021/09/08 08:39:46;;;;;;;9.60;7.10;;;;;;;19.68;60.28;99293.22;4934849;29;20038;-68
2021/09/08 08:42:27;;;;;;;11.80;6.82;;;;;;;19.78;60.26;99292.81;4935485;29;20062;-67
2021/09/08 08:44:53;;;;;;;12.15;7.20;;;;;;;19.84;59.33;99301.81;4933193;29;20385;-67
2021/09/08 08:47:20;;;;;;;9.90;6.68;;;;;;;19.93;59.20;99292.25;4935870;29;20028;-66
2021/09/08 08:49:47;;;;;;;10.02;6.15;;;;;;;19.99;59.06;99294.84;4935214;29;20415;-66
2021/09/08 08:52:14;;;;;;;12.10;6.72;;;;;;;20.09;58.97;99294.44;4935728;29;20036;-67
2021/09/08 08:54:40;;;;;;;11.23;6.60;;;;;;;20.17;58.27;99299.13;4934975;29;20040;-67
2021/09/08 08:57:10;;;;;;;10.63;6.70;;;;;;;20.23;58.04;99285.81;4934480;29;20028;-66
2021/09/08 08:59:37;;;;;;;11.13;6.20;;;;;;;20.30;57.32;99291.66;4935409;29;20024;-67
2021/09/08 09:02:31;;;;;;;10.02;6.65;;;;;;;20.38;57.43;99282.38;4934313;29;20035;-67
2021/09/08 09:04:58;;;;;;;10.48;6.00;;;;;;;20.48;57.31;99283.09;4934631;29;20035;-67
2021/09/08 09:07:36;;;;;;;10.27;5.68;;;;;;;20.57;56.88;99292.19;4950285;29;20063;-67
2021/09/08 09:10:08;;;;;;;8.35;5.07;;;;;;;20.64;56.55;99295.25;4934825;29;20047;-66
2021/09/08 09:12:43;;;;;;;12.27;6.20;;;;;;;20.69;56.05;99291.41;4935466;29;20073;-66
2021/09/08 09:15:16;;;;;;;8.73;6.25;;;;;;;20.80;56.38;99297.41;4935208;29;20063;-67
2021/09/08 09:17:43;;;;;;;10.85;5.93;;;;;;;20.85;55.75;99299.16;4934546;29;20036;-68
2021/09/08 09:20:12;;;;;;;9.35;5.60;;;;;;;20.93;55.81;99298.25;4933008;29;20032;-68
2021/09/08 09:22:42;;;;;;;8.57;6.10;;;;;;;20.99;55.37;99294.06;4933209;29;20496;-67
2021/09/08 09:25:10;;;;;;;8.45;5.15;;;;;;;21.07;54.94;99286.78;4931136;29;20039;-67
2021/09/08 09:27:38;;;;;;;8.57;5.60;;;;;;;21.14;54.61;99288.97;4932266;29;20091;-67
2021/09/08 09:30:07;;;;;;;13.88;6.60;;;;;;;21.21;54.02;99283.66;4933201;28;20082;-67
2021/09/08 09:32:52;;;;;;;9.60;5.30;;;;;;;21.27;53.85;99280.28;4947422;29;20229;-66
2021/09/08 09:35:21;;;;;;;7.68;4.95;;;;;;;21.35;53.36;99281.34;4934618;29;20032;-68
2021/09/08 09:37:49;;;;;;;10.43;6.20;;;;;;;21.39;52.56;99275.84;4934146;29;20054;-67
2021/09/08 09:40:17;;;;;;;9.63;5.93;;;;;;;21.45;52.47;99279.22;4934527;28;20028;-67
2021/09/08 09:42:43;;;;;;;8.55;4.95;;;;;;;21.48;52.45;99270.16;4934094;29;20043;-67
2021/09/08 09:45:10;;;;;;;10.07;5.63;;;;;;;21.52;52.58;99276.66;4933531;29;20032;-67
2021/09/08 09:47:39;;;;;;;7.28;5.22;;;;;;;21.59;52.82;99274.09;4933997;29;20035;-66
2021/09/08 09:50:07;;;;;;;7.57;5.03;;;;;;;21.66;51.73;99265.97;4933708;29;20481;-69
2021/09/08 09:52:34;;;;;;;8.02;5.43;;;;;;;21.70;51.56;99266.91;4933813;29;20103;-68
2021/09/08 09:55:01;;;;;;;7.20;5.13;;;;;;;21.71;50.64;99257.38;4934517;29;20040;-70
2021/09/08 09:57:26;;;;;;;8.15;5.32;;;;;;;21.78;50.36;99262.34;4948804;29;20028;-67
2021/09/08 09:59:53;;;;;;;13.43;8.35;;;;;;;21.83;50.10;99258.50;4933969;29;20054;-68
2021/09/08 10:02:19;;;;;;;15.45;8.02;;;;;;;21.88;50.04;99254.66;4933786;29;20039;-67
2021/09/08 10:04:48;;;;;;;8.43;5.47;;;;;;;21.92;49.47;99244.41;4933767;29;20055;-67
2021/09/08 10:07:17;;;;;;;7.38;5.10;;;;;;;21.96;49.68;99259.28;4933179;29;20040;-67
2021/09/08 10:09:43;;;;;;;7.03;5.13;;;;;;;22.01;49.58;99253.44;4932651;29;20488;-67
2021/09/08 10:12:09;;;;;;;8.23;4.85;;;;;;;22.07;47.94;99252.03;4932716;29;20045;-66
2021/09/08 10:14:35;;;;;;;10.23;4.88;;;;;;;22.07;47.59;99251.22;4933740;29;20031;-67
2021/09/08 10:17:02;;;;;;;11.02;5.90;;;;;;;22.13;47.84;99249.81;4933187;29;20060;-67
2021/09/08 10:19:29;;;;;;;8.68;5.60;;;;;;;22.19;47.98;99248.41;4932680;29;20583;-66
2021/09/08 10:22:08;;;;;;;7.72;5.47;;;;;;;22.26;47.81;99245.78;4932379;29;20091;-68
2021/09/08 10:24:34;;;;;;;8.68;5.68;;;;;;;22.29;46.15;99245.06;4933198;29;20042;-66
2021/09/08 10:27:00;;;;;;;9.10;5.13;;;;;;;22.32;45.47;99246.34;4933367;29;20027;-67
2021/09/08 10:29:29;;;;;;;8.95;5.72;;;;;;;22.40;45.87;99245.38;4933507;29;20044;-68
2021/09/08 10:31:58;;;;;;;7.70;5.30;;;;;;;22.42;44.81;99243.03;4933209;29;20093;-67
2021/09/08 10:34:25;;;;;;;9.05;5.50;;;;;;;22.45;45.59;99238.75;4932858;29;20118;-68
2021/09/08 10:36:51;;;;;;;8.57;4.70;;;;;;;22.50;45.02;99241.28;4933320;29;20032;-67
2021/09/08 10:39:36;;;;;;;8.65;5.25;;;;;;;22.57;45.58;99232.28;4914539;29;20043;-66
2021/09/08 10:47:35;;;;;;;8.27;5.07;;;;;;;22.70;42.13;99225.44;4857882;28;20057;-66
2021/09/08 10:50:01;;;;;;;8.63;4.72;;;;;;;22.74;42.49;99225.53;4967617;28;20664;-67
2021/09/08 10:52:38;;;;;;;10.75;6.43;;;;;;;22.77;42.46;99224.81;4970113;28;20030;-66
2021/09/08 10:55:14;;;;;;;8.68;4.90;;;;;;;22.81;41.21;99222.13;4971068;28;20023;-66
2021/09/08 10:57:47;;;;;;;9.00;5.40;;;;;;;22.84;40.83;99221.38;4969636;28;20026;-66
2021/09/08 11:00:21;;;;;;;6.43;4.68;;;;;;;22.89;41.94;99221.94;4970608;28;20097;-66
2021/09/08 11:02:47;;;;;;;7.93;4.60;;;;;;;22.96;42.33;99217.69;4969190;28;20034;-68
2021/09/08 11:05:12;;;;;;;6.00;4.80;;;;;;;23.04;41.90;99203.50;4968725;28;20049;-67
2021/09/08 11:07:39;;;;;;;13.52;5.88;;;;;;;23.14;42.63;99216.13;4970560;28;20027;-67
2021/09/08 11:10:05;;;;;;;8.00;5.40;;;;;;;23.23;40.76;99217.97;4971341;28;20035;-67
2021/09/08 11:12:48;;;;;;;7.47;5.28;;;;;;;23.28;41.23;99217.69;4969572;28;20106;-67
2021/09/08 11:15:15;;;;;;;8.73;5.25;;;;;;;23.33;41.24;99214.63;4969799;28;20039;-66
2021/09/08 11:17:40;;;;;;;8.13;4.88;;;;;;;23.38;41.20;99219.94;4971005;28;20030;-67
2021/09/08 11:20:08;;;;;;;8.65;4.80;;;;;;;23.43;41.32;99210.44;4968198;28;20037;-66
2021/09/08 11:22:34;;;;;;;8.48;5.10;;;;;;;23.43;39.80;99208.47;4970534;28;20074;-66
2021/09/08 11:25:10;;;;;;;7.63;5.13;;;;;;;23.45;40.29;99206.06;4970743;28;20043;-66